Time;durP1;ratioP1;P1;durP2;ratioP2;P2;SDS_P1;SDS_P2;PMS_P1;PMS_P2;Temp;Humidity;BMP_temperature;BMP_pressure;BME280_temperature;BME280_humidity;BME280_pressure;Samples;Min_cycle;Max_cycle;Signal;HPM_P1;HPM_P2
2023/03/31 00:03:01;;;;;;;;;;;5.90;99.90;;;;;;8250811;28;20481;-78
2023/03/31 00:07:04;;;;;;;;;;;5.60;99.90;;;;;;8258275;28;19913;-80
2023/03/31 00:11:09;;;;;;;;;;;5.50;99.90;;;;;;8256573;28;19909;-79
2023/03/31 00:15:09;;;;;;;;;;;5.40;99.90;;;;;;8250367;28;19906;-78
2023/03/31 00:19:16;;;;;;;;;;;5.30;99.90;;;;;;8240312;28;20312;-79
2023/03/31 00:23:17;;;;;;;;;;;5.30;99.90;;;;;;8249694;28;19910;-78
2023/03/31 00:27:18;;;;;;;;;;;5.10;99.90;;;;;;8252246;28;20562;-78
2023/03/31 00:31:19;;;;;;;;;;;5.00;99.90;;;;;;8256271;28;19910;-78
2023/03/31 00:35:20;;;;;;;;;;;4.90;99.90;;;;;;8242622;28;19997;-80
2023/03/31 00:39:21;;;;;;;;;;;4.80;99.90;;;;;;8259997;28;19910;-80
2023/03/31 00:43:25;;;;;;;;;;;4.70;99.90;;;;;;8250328;28;19906;-78
2023/03/31 00:47:28;;;;;;;;;;;4.70;99.90;;;;;;8249379;28;19912;-79
2023/03/31 00:51:31;;;;;;;;;;;4.70;99.90;;;;;;8244432;28;19917;-77
2023/03/31 00:55:36;;;;;;;;;;;4.80;99.90;;;;;;8242271;28;19918;-78
2023/03/31 00:59:43;;;;;;;;;;;5.00;99.90;;;;;;8245137;28;19917;-79
2023/03/31 01:03:45;;;;;;;;;;;5.10;99.90;;;;;;8249090;28;19910;-79
2023/03/31 01:07:46;;;;;;;;;;;5.10;99.90;;;;;;8251566;28;19906;-79
2023/03/31 01:11:47;;;;;;;;;;;5.20;99.90;;;;;;8243222;28;19917;-79
2023/03/31 01:15:48;;;;;;;;;;;5.30;99.90;;;;;;8255100;28;20271;-79
2023/03/31 01:19:48;;;;;;;;;;;5.50;99.90;;;;;;8241863;28;19918;-78
2023/03/31 01:23:49;;;;;;;;;;;5.60;99.90;;;;;;8259773;28;19913;-79
2023/03/31 01:27:56;;;;;;;;;;;5.60;99.90;;;;;;8250897;28;20349;-78
2023/03/31 01:32:16;;;;;;;;;;;5.70;99.90;;;;;;8256601;28;19910;-78
2023/03/31 01:36:31;;;;;;;;;;;6.00;99.90;;;;;;8260640;28;19906;-79
2023/03/31 01:40:47;;;;;;;;;;;6.00;99.90;;;;;;8249239;28;19921;-78
2023/03/31 01:44:56;;;;;;;;;;;5.90;99.90;;;;;;8264532;28;19916;-79
2023/03/31 01:48:57;;;;;;;;;;;6.10;99.90;;;;;;8261499;28;19952;-79
2023/03/31 01:53:03;;;;;;;;;;;6.50;99.90;;;;;;8254376;28;19905;-77
2023/03/31 01:57:18;;;;;;;;;;;6.60;99.90;;;;;;8261516;28;19919;-78
2023/03/31 02:01:24;;;;;;;;;;;7.20;99.90;;;;;;8254788;28;19917;-78
2023/03/31 02:05:25;;;;;;;;;;;8.10;99.90;;;;;;8263724;28;19910;-78
2023/03/31 02:09:29;;;;;;;;;;;8.10;99.90;;;;;;8248005;28;20456;-77
2023/03/31 02:13:30;;;;;;;;;;;8.00;99.90;;;;;;8259540;28;19905;-80
2023/03/31 02:17:31;;;;;;;;;;;8.00;99.90;;;;;;8252180;28;19909;-79
2023/03/31 02:21:33;;;;;;;;;;;8.10;99.90;;;;;;8252552;28;19910;-78
2023/03/31 02:25:35;;;;;;;;;;;8.30;99.90;;;;;;8256849;28;20344;-78
2023/03/31 02:29:36;;;;;;;;;;;8.50;99.90;;;;;;8261999;28;19909;-79
2023/03/31 02:33:36;;;;;;;;;;;8.60;99.90;;;;;;8256494;28;19975;-78
2023/03/31 02:37:37;;;;;;;;;;;8.50;99.90;;;;;;8249994;28;20393;-78
2023/03/31 02:41:38;;;;;;;;;;;8.40;99.90;;;;;;8251001;28;19921;-78
2023/03/31 02:45:49;;;;;;;;;;;8.40;99.90;;;;;;8261022;28;20358;-78
2023/03/31 02:49:52;;;;;;;;;;;8.40;99.90;;;;;;8253279;28;19964;-78
2023/03/31 02:54:01;;;;;;;;;;;8.30;99.90;;;;;;8261967;28;20520;-78
2023/03/31 02:58:19;;;;;;;;;;;8.30;99.90;;;;;;8250952;28;19920;-78
2023/03/31 03:02:30;;;;;;;;;;;8.30;99.90;;;;;;8261400;28;19913;-78
2023/03/31 03:06:36;;;;;;;;;;;8.60;99.90;;;;;;8260478;28;19909;-79
2023/03/31 03:10:48;;;;;;;;;;;8.60;99.90;;;;;;8261176;28;19910;-78
2023/03/31 03:14:56;;;;;;;;;;;8.30;99.90;;;;;;8261401;28;19933;-78
2023/03/31 03:18:58;;;;;;;;;;;8.30;99.90;;;;;;8255322;28;19916;-78
2023/03/31 03:22:58;;;;;;;;;;;8.70;99.90;;;;;;8261346;28;19949;-78
2023/03/31 03:26:59;;;;;;;;;;;8.70;99.90;;;;;;8251639;28;19906;-78
2023/03/31 03:31:00;;;;;;;;;;;8.50;99.90;;;;;;8260708;28;19910;-80
2023/03/31 03:35:01;;;;;;;;;;;8.50;99.90;;;;;;8251502;28;20097;-80
2023/03/31 03:39:02;;;;;;;;;;;8.50;99.90;;;;;;8245324;28;19906;-78
2023/03/31 03:43:03;;;;;;;;;;;8.70;99.90;;;;;;8260590;28;19906;-78
2023/03/31 03:47:03;;;;;;;;;;;8.40;99.90;;;;;;8248985;28;19920;-78
2023/03/31 03:51:05;;;;;;;;;;;8.40;99.90;;;;;;8241870;28;19964;-78
2023/03/31 03:55:06;;;;;;;;;;;8.10;99.90;;;;;;8253170;28;20405;-78
2023/03/31 03:59:06;;;;;;;;;;;8.40;99.90;;;;;;8244021;28;19913;-77
2023/03/31 04:03:06;;;;;;;;;;;8.30;99.90;;;;;;8261163;28;19992;-79
2023/03/31 04:07:07;;;;;;;;;;;8.10;99.90;;;;;;8256204;28;19916;-78
2023/03/31 04:11:12;;;;;;;;;;;8.20;99.90;;;;;;8261248;28;19905;-78
2023/03/31 04:15:12;;;;;;;;;;;8.30;99.90;;;;;;8261009;28;19910;-79
2023/03/31 04:19:16;;;;;;;;;;;8.30;99.90;;;;;;8260265;28;19917;-78
2023/03/31 04:23:17;;;;;;;;;;;8.20;99.90;;;;;;8236868;28;19960;-79
2023/03/31 04:27:19;;;;;;;;;;;8.00;99.90;;;;;;8248776;28;19913;-79
2023/03/31 04:31:24;;;;;;;;;;;7.70;99.90;;;;;;8253922;28;19973;-77
2023/03/31 04:35:26;;;;;;;;;;;7.30;99.90;;;;;;8249055;28;19956;-79
2023/03/31 04:39:29;;;;;;;;;;;7.10;99.90;;;;;;8234195;28;20230;-78
2023/03/31 04:43:29;;;;;;;;;;;7.10;99.90;;;;;;8245590;28;19905;-79
2023/03/31 04:47:30;;;;;;;;;;;7.00;99.90;;;;;;8248048;28;20385;-79
2023/03/31 04:51:30;;;;;;;;;;;6.90;99.90;;;;;;8250733;28;20008;-79
2023/03/31 04:55:31;;;;;;;;;;;7.50;99.90;;;;;;8239016;28;19955;-79
2023/03/31 04:59:32;;;;;;;;;;;7.90;99.90;;;;;;8240249;28;19919;-79
2023/03/31 05:03:32;;;;;;;;;;;7.70;99.90;;;;;;8241326;28;19909;-80
2023/03/31 05:07:33;;;;;;;;;;;7.70;99.90;;;;;;8246014;28;19909;-79
2023/03/31 05:11:33;;;;;;;;;;;7.90;99.90;;;;;;8255403;28;19914;-79
2023/03/31 05:15:36;;;;;;;;;;;7.90;99.90;;;;;;8262993;28;19914;-79
2023/03/31 05:19:36;;;;;;;;;;;7.80;99.90;;;;;;8246714;28;19941;-79
2023/03/31 05:23:37;;;;;;;;;;;7.70;99.90;;;;;;8254242;28;19910;-80
2023/03/31 05:27:37;;;;;;;;;;;7.80;99.90;;;;;;8264106;28;19916;-80
2023/03/31 05:31:37;;;;;;;;;;;7.90;99.90;;;;;;8237448;28;19925;-79
2023/03/31 05:35:38;;;;;;;;;;;8.10;99.90;;;;;;8245052;28;20008;-80
2023/03/31 05:39:38;;;;;;;;;;;8.30;99.90;;;;;;8236956;28;19972;-80
2023/03/31 05:43:39;;;;;;;;;;;8.30;99.90;;;;;;8262702;28;19910;-80
2023/03/31 05:47:39;;;;;;;;;;;8.20;99.90;;;;;;8249640;28;20290;-80
2023/03/31 05:51:40;;;;;;;;;;;8.30;99.90;;;;;;8250714;28;20366;-81
2023/03/31 05:55:40;;;;;;;;;;;8.00;99.90;;;;;;8244219;28;19914;-81
2023/03/31 05:59:41;;;;;;;;;;;7.90;99.90;;;;;;8265127;28;19953;-80
2023/03/31 06:03:41;;;;;;;;;;;8.00;99.90;;;;;;8263415;28;19916;-80
2023/03/31 06:07:42;;;;;;;;;;;8.30;99.90;;;;;;8257660;28;19906;-80
2023/03/31 06:11:42;;;;;;;;;;;7.90;99.90;;;;;;8262326;28;20338;-80
2023/03/31 06:15:51;;;;;;;;;;;7.70;99.90;;;;;;8241819;28;19952;-79
2023/03/31 06:19:51;;;;;;;;;;;7.70;99.90;;;;;;8248139;28;19910;-80
2023/03/31 06:23:54;;;;;;;;;;;7.90;99.90;;;;;;8252980;28;19916;-80
2023/03/31 06:27:55;;;;;;;;;;;7.90;99.90;;;;;;8263130;28;20004;-80
2023/03/31 06:31:55;;;;;;;;;;;8.00;99.90;;;;;;8257272;28;20433;-79
2023/03/31 06:35:56;;;;;;;;;;;8.30;99.90;;;;;;8252272;28;19941;-80
2023/03/31 06:39:56;;;;;;;;;;;8.50;99.90;;;;;;8245989;28;20374;-81
2023/03/31 06:43:57;;;;;;;;;;;8.40;99.90;;;;;;8257961;28;20322;-80
2023/03/31 06:47:57;;;;;;;;;;;8.30;99.90;;;;;;8245370;28;19910;-80
2023/03/31 06:51:58;;;;;;;;;;;8.30;99.90;;;;;;8237440;28;19910;-79
2023/03/31 06:55:58;;;;;;;;;;;8.80;99.90;;;;;;8241297;28;19914;-80
2023/03/31 06:59:59;;;;;;;;;;;8.80;99.90;;;;;;8254684;28;20009;-80
2023/03/31 07:04:00;;;;;;;;;;;8.80;99.90;;;;;;8242940;28;19910;-80
2023/03/31 07:08:00;;;;;;;;;;;9.20;99.90;;;;;;8235203;28;20451;-81
2023/03/31 07:12:04;;;;;;;;;;;9.40;99.90;;;;;;8238388;28;19913;-81
2023/03/31 07:16:05;;;;;;;;;;;9.60;99.90;;;;;;8250401;28;19910;-80
2023/03/31 07:20:11;;;;;;;;;;;9.50;99.90;;;;;;8242556;28;19924;-80
2023/03/31 07:24:12;;;;;;;;;;;9.70;99.90;;;;;;8234044;28;19910;-80
2023/03/31 07:28:12;;;;;;;;;;;10.00;99.90;;;;;;8244195;28;19948;-80
2023/03/31 07:32:13;;;;;;;;;;;10.10;99.90;;;;;;8243816;28;19922;-80
2023/03/31 07:36:14;;;;;;;;;;;10.00;99.90;;;;;;8242148;28;19952;-80
2023/03/31 07:40:20;;;;;;;;;;;10.40;99.90;;;;;;8240525;28;20382;-81
2023/03/31 07:44:22;;;;;;;;;;;11.10;99.90;;;;;;8257372;28;19906;-80
2023/03/31 07:48:22;;;;;;;;;;;11.20;99.90;;;;;;8259027;28;19922;-79
2023/03/31 07:52:23;;;;;;;;;;;11.00;99.90;;;;;;8255029;28;19968;-80
2023/03/31 07:56:23;;;;;;;;;;;10.40;99.90;;;;;;8255636;28;20305;-82
2023/03/31 08:00:24;;;;;;;;;;;9.90;99.90;;;;;;8239400;28;19923;-80
2023/03/31 08:04:24;;;;;;;;;;;9.90;99.90;;;;;;8244220;28;20297;-80
2023/03/31 08:08:25;;;;;;;;;;;10.00;99.90;;;;;;8249529;28;19905;-80
2023/03/31 08:12:25;;;;;;;;;;;10.10;99.90;;;;;;8245164;28;19910;-80
2023/03/31 08:16:26;;;;;;;;;;;10.30;99.90;;;;;;8240898;28;19909;-81
2023/03/31 08:20:26;;;;;;;;;;;10.90;99.90;;;;;;8248718;28;19924;-80
2023/03/31 08:24:27;;;;;;;;;;;11.10;99.90;;;;;;8251629;28;19914;-81
2023/03/31 08:28:27;;;;;;;;;;;11.60;99.90;;;;;;8260925;28;20381;-81
2023/03/31 08:32:28;;;;;;;;;;;11.60;99.90;;;;;;8250610;28;19945;-81
2023/03/31 08:36:28;;;;;;;;;;;11.60;99.90;;;;;;8259739;28;19954;-82
2023/03/31 08:40:30;;;;;;;;;;;11.70;99.90;;;;;;8249407;28;20020;-82
2023/03/31 08:44:50;;;;;;;;;;;12.40;99.90;;;;;;8257747;28;19963;-83
2023/03/31 08:48:53;;;;;;;;;;;12.50;99.90;;;;;;8244121;28;19910;-84
2023/03/31 08:53:02;;;;;;;;;;;12.50;99.90;;;;;;8256544;28;19916;-83
2023/03/31 08:57:04;;;;;;;;;;;12.50;99.90;;;;;;8256722;28;20547;-84
2023/03/31 09:01:08;;;;;;;;;;;12.70;99.90;;;;;;8261440;28;19913;-84
2023/03/31 09:05:27;;;;;;;;;;;13.30;99.90;;;;;;8246597;28;19910;-85
2023/03/31 09:09:37;;;;;;;;;;;13.80;99.90;;;;;;8262412;28;19925;-84
2023/03/31 09:13:55;;;;;;;;;;;13.50;99.90;;;;;;8264334;28;19905;-84
2023/03/31 09:17:58;;;;;;;;;;;13.70;99.90;;;;;;8241532;28;20334;-83
2023/03/31 09:22:00;;;;;;;;;;;13.90;99.90;;;;;;8230049;28;20286;-83
2023/03/31 09:26:02;;;;;;;;;;;14.00;99.90;;;;;;8259708;28;19910;-82
2023/03/31 09:30:09;;;;;;;;;;;14.10;99.90;;;;;;8249720;28;19928;-82
2023/03/31 09:34:15;;;;;;;;;;;14.20;99.90;;;;;;8251807;28;19909;-81
2023/03/31 09:38:15;;;;;;;;;;;14.40;99.90;;;;;;8256084;28;19910;-82
2023/03/31 09:42:18;;;;;;;;;;;14.70;99.90;;;;;;8246353;28;19916;-80
2023/03/31 09:46:23;;;;;;;;;;;15.00;99.90;;;;;;8245486;28;19906;-80
2023/03/31 09:50:23;;;;;;;;;;;15.20;99.90;;;;;;8241240;28;19913;-80
2023/03/31 09:54:28;;;;;;;;;;;14.90;99.90;;;;;;8240967;28;19979;-79
2023/03/31 09:58:28;;;;;;;;;;;15.20;99.90;;;;;;8227224;28;19949;-79
2023/03/31 10:02:34;;;;;;;;;;;15.60;99.90;;;;;;8245488;28;19914;-79
2023/03/31 10:06:39;;;;;;;;;;;16.10;99.90;;;;;;8262239;28;19914;-78
2023/03/31 10:10:43;;;;;;;;;;;17.00;99.90;;;;;;8261284;28;19909;-78
2023/03/31 10:14:45;;;;;;;;;;;17.50;99.90;;;;;;8262547;28;20378;-77
2023/03/31 10:18:45;;;;;;;;;;;17.10;99.90;;;;;;8257798;28;19917;-79
2023/03/31 10:22:46;;;;;;;;;;;16.50;99.90;;;;;;8262511;28;20374;-78
2023/03/31 10:26:48;;;;;;;;;;;16.00;99.90;;;;;;8231400;28;20004;-78
2023/03/31 10:30:51;;;;;;;;;;;15.30;99.90;;;;;;8243321;28;19917;-78
2023/03/31 10:34:51;;;;;;;;;;;14.80;99.90;;;;;;8245161;28;19910;-78
2023/03/31 10:38:52;;;;;;;;;;;14.80;99.90;;;;;;8259708;28;20416;-77
2023/03/31 10:43:05;;;;;;;;;;;14.90;99.90;;;;;;8254401;28;19921;-78
2023/03/31 10:47:16;;;;;;;;;;;14.80;99.90;;;;;;8247074;28;20342;-79
2023/03/31 10:51:18;;;;;;;;;;;14.70;99.90;;;;;;8230246;28;21252;-78
2023/03/31 10:55:26;;;;;;;;;;;14.80;99.90;;;;;;8241104;28;19922;-78
2023/03/31 10:59:26;;;;;;;;;;;14.60;99.90;;;;;;8243789;28;20271;-80
2023/03/31 11:03:29;;;;;;;;;;;14.30;99.90;;;;;;8260007;28;19913;-78
2023/03/31 11:07:44;;;;;;;;;;;15.50;99.90;;;;;;8246231;28;19925;-78
2023/03/31 11:11:44;;;;;;;;;;;17.50;99.90;;;;;;8258104;28;19964;-78
2023/03/31 11:16:04;;;;;;;;;;;19.00;99.90;;;;;;8249129;28;19906;-78
2023/03/31 11:20:11;;;;;;;;;;;19.50;99.90;;;;;;8250448;28;19924;-79
2023/03/31 11:24:12;;;;;;;;;;;20.10;99.90;;;;;;8238917;28;19906;-78
2023/03/31 11:28:30;;;;;;;;;;;20.50;99.90;;;;;;8256569;28;19918;-79
2023/03/31 11:32:31;;;;;;;;;;;20.50;99.90;;;;;;8259388;28;19911;-78
2023/03/31 11:37:07;;;;;;;;;;;20.90;99.90;;;;;;8250025;28;19990;-78
2023/03/31 11:41:14;;;;;;;;;;;19.20;98.10;;;;;;8158040;28;20337;-78
2023/03/31 11:45:20;;;;;;;;;;;17.70;99.20;;;;;;8244622;28;20365;-77
2023/03/31 11:49:29;;;;;;;;;;;17.10;99.90;;;;;;8238082;28;19909;-78
2023/03/31 11:53:31;;;;;;;;;;;16.80;99.90;;;;;;8220441;28;19979;-77
2023/03/31 11:57:35;;;;;;;;;;;15.80;99.10;;;;;;8221990;28;20004;-78
2023/03/31 12:01:46;;;;;;;;;;;15.60;99.90;;;;;;8256305;28;19967;-79
2023/03/31 12:05:48;;;;;;;;;;;15.40;99.90;;;;;;8243956;28;19909;-81
2023/03/31 12:10:04;;;;;;;;;;;15.30;99.90;;;;;;8243693;28;19910;-80
2023/03/31 12:14:20;;;;;;;;;;;15.20;99.90;;;;;;8250678;28;20392;-80
2023/03/31 12:18:23;;;;;;;;;;;15.00;99.90;;;;;;8253020;28;19971;-79
2023/03/31 12:22:27;;;;;;;;;;;14.80;99.90;;;;;;8242373;28;19914;-80
2023/03/31 12:26:51;;;;;;;;;;;14.90;99.90;;;;;;8237739;28;19910;-80
2023/03/31 12:30:51;;;;;;;;;;;14.70;99.90;;;;;;8232453;28;19952;-80
2023/03/31 12:34:57;;;;;;;;;;;14.70;99.90;;;;;;8244501;28;19999;-80
2023/03/31 12:39:05;;;;;;;;;;;14.70;99.90;;;;;;8231222;28;20271;-81
2023/03/31 12:43:05;;;;;;;;;;;14.40;99.90;;;;;;8232394;28;19914;-79
2023/03/31 12:47:12;;;;;;;;;;;13.60;99.90;;;;;;8237629;28;19906;-80
2023/03/31 12:51:31;;;;;;;;;;;12.80;99.90;;;;;;8242952;28;19917;-79
2023/03/31 12:55:34;;;;;;;;;;;12.90;99.90;;;;;;8238589;28;20545;-79
2023/03/31 12:59:36;;;;;;;;;;;12.90;99.90;;;;;;8238177;28;19988;-79
2023/03/31 13:03:47;;;;;;;;;;;12.60;99.90;;;;;;8242663;28;19916;-80
2023/03/31 13:07:48;;;;;;;;;;;12.70;99.90;;;;;;8260090;28;19954;-80
2023/03/31 13:11:48;;;;;;;;;;;13.30;99.90;;;;;;8261823;28;20057;-80
2023/03/31 13:15:49;;;;;;;;;;;13.30;99.90;;;;;;8258773;28;19914;-82
2023/03/31 13:19:51;;;;;;;;;;;13.20;99.90;;;;;;8247439;28;19914;-80
2023/03/31 13:23:52;;;;;;;;;;;14.40;99.90;;;;;;8259388;28;19956;-79
2023/03/31 13:27:53;;;;;;;;;;;14.20;99.90;;;;;;8264338;28;19916;-80
2023/03/31 13:32:02;;;;;;;;;;;14.40;99.90;;;;;;8251816;28;19945;-80
2023/03/31 13:36:05;;;;;;;;;;;13.80;99.90;;;;;;8253442;28;20409;-80
2023/03/31 13:40:13;;;;;;;;;;;13.40;99.90;;;;;;8255947;28;19910;-80
2023/03/31 13:44:16;;;;;;;;;;;13.00;99.90;;;;;;8266040;28;20291;-80
2023/03/31 13:48:23;;;;;;;;;;;13.80;99.90;;;;;;8243218;28;19993;-80
2023/03/31 13:52:30;;;;;;;;;;;14.00;99.90;;;;;;8248363;28;20004;-81
2023/03/31 13:56:49;;;;;;;;;;;16.20;99.90;;;;;;8241138;28;19914;-81
2023/03/31 14:00:55;;;;;;;;;;;15.60;99.90;;;;;;8265549;28;20000;-81
2023/03/31 14:05:18;;;;;;;;;;;15.70;99.90;;;;;;8266899;28;19960;-82
2023/03/31 14:09:21;;;;;;;;;;;18.60;99.30;;;;;;8254609;28;20508;-82
2023/03/31 14:13:23;;;;;;;;;;;19.90;92.90;;;;;;8247978;28;19945;-83
2023/03/31 14:17:28;;;;;;;;;;;20.30;93.00;;;;;;8251301;28;19918;-85
2023/03/31 14:21:29;;;;;;;;;;;21.50;92.60;;;;;;8269573;28;19921;-79
2023/03/31 14:25:32;;;;;;;;;;;19.20;91.30;;;;;;8260486;28;19916;-80
2023/03/31 14:29:32;;;;;;;;;;;16.20;95.10;;;;;;8251341;28;19913;-80
2023/03/31 14:33:36;;;;;;;;;;;15.20;97.80;;;;;;8249689;28;19910;-80
2023/03/31 14:37:36;;;;;;;;;;;15.00;98.40;;;;;;8234856;28;19910;-80
2023/03/31 14:41:37;;;;;;;;;;;14.50;99.90;;;;;;8248047;28;20378;-79
2023/03/31 14:45:37;;;;;;;;;;;14.20;99.90;;;;;;8260863;28;19956;-79
2023/03/31 14:49:38;;;;;;;;;;;13.90;99.90;;;;;;8241912;28;20386;-80
2023/03/31 14:53:38;;;;;;;;;;;13.90;99.90;;;;;;8249035;28;19913;-80
2023/03/31 14:57:40;;;;;;;;;;;14.00;99.90;;;;;;8240788;28;19959;-79
2023/03/31 15:01:40;;;;;;;;;;;14.80;99.90;;;;;;8245676;28;19913;-79
2023/03/31 15:05:42;;;;;;;;;;;15.00;99.90;;;;;;8250535;28;19933;-79
2023/03/31 15:09:48;;;;;;;;;;;14.70;99.90;;;;;;8248310;28;19960;-79
2023/03/31 15:13:50;;;;;;;;;;;14.20;99.90;;;;;;8248268;28;20514;-80
2023/03/31 15:17:51;;;;;;;;;;;14.10;99.90;;;;;;8240913;28;19909;-79
2023/03/31 15:21:56;;;;;;;;;;;13.80;99.90;;;;;;8231932;28;19913;-79
2023/03/31 15:25:58;;;;;;;;;;;13.60;99.90;;;;;;8236870;28;19964;-79
2023/03/31 15:30:00;;;;;;;;;;;13.00;99.90;;;;;;8229299;28;20285;-79
2023/03/31 15:34:10;;;;;;;;;;;12.70;99.90;;;;;;8253018;28;19917;-80
2023/03/31 15:38:15;;;;;;;;;;;10.70;99.90;;;;;;8244636;28;19929;-80
2023/03/31 15:42:16;;;;;;;;;;;8.40;99.90;;;;;;8243202;28;20000;-81
2023/03/31 15:46:35;;;;;;;;;;;7.70;99.90;;;;;;8257059;28;19924;-80
2023/03/31 15:50:37;;;;;;;;;;;7.60;99.90;;;;;;8244724;28;19914;-83
2023/03/31 15:54:41;;;;;;;;;;;7.60;99.90;;;;;;8243343;28;19977;-82
2023/03/31 15:58:45;;;;;;;;;;;7.60;99.90;;;;;;8242476;28;20107;-83
2023/03/31 16:02:45;;;;;;;;;;;7.60;99.90;;;;;;8252449;28;19925;-82
2023/03/31 16:06:49;;;;;;;;;;;7.70;99.90;;;;;;8242835;28;19906;-82
2023/03/31 16:10:54;;;;;;;;;;;7.70;99.90;;;;;;8240589;28;19917;-81
2023/03/31 16:14:58;;;;;;;;;;;8.00;99.90;;;;;;8234788;28;20021;-82
2023/03/31 16:19:02;;;;;;;;;;;9.20;99.90;;;;;;8241027;28;19910;-82
2023/03/31 16:23:12;;;;;;;;;;;9.60;99.90;;;;;;8258155;28;20387;-83
2023/03/31 16:27:13;;;;;;;;;;;9.40;99.90;;;;;;8240083;28;20614;-83
2023/03/31 16:31:29;;;;;;;;;;;9.00;99.90;;;;;;8251698;28;19968;-83
2023/03/31 16:35:35;;;;;;;;;;;8.70;99.90;;;;;;8249830;28;20398;-83
2023/03/31 16:39:36;;;;;;;;;;;8.50;99.90;;;;;;8253423;28;20351;-83
2023/03/31 16:43:36;;;;;;;;;;;8.40;99.90;;;;;;8244303;28;19938;-83
2023/03/31 16:47:36;;;;;;;;;;;8.20;99.90;;;;;;8250147;28;19906;-83
2023/03/31 16:51:37;;;;;;;;;;;8.30;99.90;;;;;;8250935;28;19906;-83
2023/03/31 16:55:37;;;;;;;;;;;8.30;99.90;;;;;;8257368;28;19920;-83
2023/03/31 16:59:38;;;;;;;;;;;8.50;99.90;;;;;;8252931;28;20055;-82
2023/03/31 17:03:40;;;;;;;;;;;8.40;99.90;;;;;;8268002;28;19905;-83
2023/03/31 17:07:40;;;;;;;;;;;8.50;99.90;;;;;;8263512;28;19916;-82
2023/03/31 17:11:41;;;;;;;;;;;8.60;99.90;;;;;;8265055;28;19906;-83
2023/03/31 17:15:41;;;;;;;;;;;8.40;99.90;;;;;;8268676;28;19945;-82
2023/03/31 17:19:42;;;;;;;;;;;8.20;99.90;;;;;;8254201;28;19960;-82
2023/03/31 17:23:42;;;;;;;;;;;8.20;99.90;;;;;;8254362;28;19905;-82
2023/03/31 17:27:43;;;;;;;;;;;8.10;99.90;;;;;;8257280;28;19929;-81
2023/03/31 17:31:43;;;;;;;;;;;8.10;99.90;;;;;;8263925;28;19906;-80
2023/03/31 17:35:44;;;;;;;;;;;8.10;99.90;;;;;;8268524;28;19909;-81
2023/03/31 17:39:44;;;;;;;;;;;8.00;99.90;;;;;;8257377;28;19961;-80
2023/03/31 17:43:45;;;;;;;;;;;8.00;99.90;;;;;;8240795;28;19914;-81
2023/03/31 17:47:46;;;;;;;;;;;7.80;99.90;;;;;;8261007;28;20390;-81
2023/03/31 17:51:46;;;;;;;;;;;7.60;99.90;;;;;;8265615;28;19906;-81
2023/03/31 17:55:47;;;;;;;;;;;7.50;99.90;;;;;;8267375;28;19920;-80
2023/03/31 17:59:48;;;;;;;;;;;7.50;99.90;;;;;;8248784;28;20297;-80
2023/03/31 18:03:48;;;;;;;;;;;7.50;99.90;;;;;;8250114;28;20484;-79
2023/03/31 18:07:50;;;;;;;;;;;7.40;99.90;;;;;;8266210;28;19949;-79
2023/03/31 18:11:52;;;;;;;;;;;7.30;99.90;;;;;;8258373;28;19933;-80
2023/03/31 18:15:53;;;;;;;;;;;7.30;99.90;;;;;;8247762;28;20372;-79
2023/03/31 18:19:53;;;;;;;;;;;7.30;99.90;;;;;;8265472;28;19913;-79
2023/03/31 18:23:54;;;;;;;;;;;7.30;99.90;;;;;;8265402;28;19913;-79
2023/03/31 18:27:54;;;;;;;;;;;7.20;99.90;;;;;;8265433;28;19989;-79
2023/03/31 18:31:55;;;;;;;;;;;7.30;99.90;;;;;;8263400;28;19964;-79
2023/03/31 18:35:57;;;;;;;;;;;7.20;99.90;;;;;;8264981;28;19909;-80
2023/03/31 18:39:57;;;;;;;;;;;7.20;99.90;;;;;;8255526;28;20045;-79
2023/03/31 18:43:59;;;;;;;;;;;7.20;99.90;;;;;;8258970;28;19956;-80
2023/03/31 18:47:59;;;;;;;;;;;7.20;99.90;;;;;;8248684;28;20369;-80
2023/03/31 18:52:02;;;;;;;;;;;7.10;99.90;;;;;;8264055;28;19913;-78
2023/03/31 18:56:03;;;;;;;;;;;7.20;99.90;;;;;;8259806;28;19949;-79
2023/03/31 19:00:04;;;;;;;;;;;7.20;99.90;;;;;;8244840;28;19910;-78
2023/03/31 19:04:08;;;;;;;;;;;7.30;99.90;;;;;;8255997;28;19937;-79
2023/03/31 19:08:09;;;;;;;;;;;7.40;99.90;;;;;;8257341;28;20378;-80
2023/03/31 19:12:10;;;;;;;;;;;7.40;99.90;;;;;;8234875;28;19910;-77
2023/03/31 19:16:12;;;;;;;;;;;7.40;99.90;;;;;;8249758;28;19952;-77
2023/03/31 19:20:15;;;;;;;;;;;7.40;99.90;;;;;;8251928;28;19913;-77
2023/03/31 19:24:15;;;;;;;;;;;7.40;99.90;;;;;;8248940;28;20282;-78
2023/03/31 19:28:16;;;;;;;;;;;7.40;99.90;;;;;;8260659;28;19906;-77
2023/03/31 19:32:17;;;;;;;;;;;7.50;99.90;;;;;;8260433;28;19909;-78
2023/03/31 19:36:17;;;;;;;;;;;7.40;99.90;;;;;;8250509;28;20028;-77
2023/03/31 19:40:18;;;;;;;;;;;7.40;99.90;;;;;;8251226;28;20515;-77
2023/03/31 19:44:18;;;;;;;;;;;7.40;99.90;;;;;;8251884;28;20454;-77
2023/03/31 19:48:19;;;;;;;;;;;7.40;99.90;;;;;;8259389;28;19910;-77
2023/03/31 19:52:20;;;;;;;;;;;7.40;99.90;;;;;;8244866;28;19921;-78
2023/03/31 19:56:24;;;;;;;;;;;7.40;99.90;;;;;;8242235;28;19913;-77
2023/03/31 20:00:24;;;;;;;;;;;7.60;99.90;;;;;;8250363;28;19910;-77
2023/03/31 20:04:24;;;;;;;;;;;7.60;99.90;;;;;;8251146;28;19909;-77
2023/03/31 20:08:25;;;;;;;;;;;7.70;99.90;;;;;;8259201;28;19914;-77
2023/03/31 20:12:26;;;;;;;;;;;7.70;99.90;;;;;;8259551;28;20511;-77
2023/03/31 20:16:27;;;;;;;;;;;7.60;99.90;;;;;;8259583;28;19913;-77
2023/03/31 20:20:28;;;;;;;;;;;7.60;99.90;;;;;;8258290;28;19933;-77
2023/03/31 20:24:28;;;;;;;;;;;7.60;99.90;;;;;;8251367;28;19994;-77
2023/03/31 20:28:31;;;;;;;;;;;7.60;99.90;;;;;;8250396;28;19969;-77
2023/03/31 20:32:31;;;;;;;;;;;7.60;99.90;;;;;;8245089;28;20487;-76
2023/03/31 20:36:32;;;;;;;;;;;7.60;99.90;;;;;;8234378;28;19916;-77
2023/03/31 20:40:33;;;;;;;;;;;7.50;99.90;;;;;;8245641;28;19910;-77
2023/03/31 20:44:33;;;;;;;;;;;7.50;99.90;;;;;;8247663;28;19956;-77
2023/03/31 20:48:34;;;;;;;;;;;7.60;99.90;;;;;;8244163;28;19917;-76
2023/03/31 20:52:35;;;;;;;;;;;7.70;99.90;;;;;;8240421;28;19916;-77
2023/03/31 20:56:37;;;;;;;;;;;7.60;99.90;;;;;;8258595;28;19964;-76
2023/03/31 21:00:37;;;;;;;;;;;7.70;99.90;;;;;;8253063;28;20502;-77
2023/03/31 21:04:38;;;;;;;;;;;7.60;99.90;;;;;;8250436;28;19906;-77
2023/03/31 21:08:40;;;;;;;;;;;7.70;99.90;;;;;;8236821;28;19913;-76
2023/03/31 21:12:44;;;;;;;;;;;7.70;99.90;;;;;;8257562;28;19913;-77
2023/03/31 21:16:45;;;;;;;;;;;7.70;99.90;;;;;;8244516;28;19910;-77
2023/03/31 21:20:50;;;;;;;;;;;7.70;99.90;;;;;;8246431;28;20653;-77
2023/03/31 21:24:50;;;;;;;;;;;7.70;99.90;;;;;;8239313;28;19910;-77
2023/03/31 21:28:54;;;;;;;;;;;7.70;99.90;;;;;;8240566;28;19910;-78
2023/03/31 21:32:54;;;;;;;;;;;7.70;99.90;;;;;;8232636;28;19993;-77
2023/03/31 21:36:55;;;;;;;;;;;7.80;99.90;;;;;;8238001;28;19914;-77
2023/03/31 21:40:56;;;;;;;;;;;7.60;99.90;;;;;;8257421;28;19937;-77
2023/03/31 21:44:57;;;;;;;;;;;7.50;99.90;;;;;;8242414;28;19945;-77
2023/03/31 21:48:58;;;;;;;;;;;7.50;99.90;;;;;;8260684;28;19989;-76
2023/03/31 21:52:59;;;;;;;;;;;7.40;99.90;;;;;;8249884;28;19957;-77
2023/03/31 21:56:59;;;;;;;;;;;7.20;99.90;;;;;;8262035;28;19913;-77
2023/03/31 22:01:01;;;;;;;;;;;7.20;99.90;;;;;;8250580;28;19917;-76
2023/03/31 22:05:03;;;;;;;;;;;7.20;99.90;;;;;;8264902;28;20557;-75
2023/03/31 22:09:04;;;;;;;;;;;7.20;99.90;;;;;;8252277;28;19992;-77
2023/03/31 22:13:05;;;;;;;;;;;7.10;99.90;;;;;;8252502;28;19905;-76
2023/03/31 22:17:05;;;;;;;;;;;7.00;99.90;;;;;;8263043;28;19988;-77
2023/03/31 22:21:14;;;;;;;;;;;7.00;99.90;;;;;;8253042;28;19921;-77
2023/03/31 22:25:15;;;;;;;;;;;6.90;99.90;;;;;;8249607;28;19953;-77
2023/03/31 22:29:15;;;;;;;;;;;6.90;99.90;;;;;;8261094;28;20590;-77
2023/03/31 22:33:16;;;;;;;;;;;6.70;99.90;;;;;;8261823;28;19930;-77
2023/03/31 22:37:16;;;;;;;;;;;6.80;99.90;;;;;;8258329;28;19909;-78
2023/03/31 22:41:17;;;;;;;;;;;6.90;99.90;;;;;;8259071;28;20312;-77
2023/03/31 22:45:17;;;;;;;;;;;6.90;99.90;;;;;;8261615;28;19968;-76
2023/03/31 22:49:18;;;;;;;;;;;6.80;99.90;;;;;;8246217;28;19916;-77
2023/03/31 22:53:18;;;;;;;;;;;6.80;99.90;;;;;;8244237;28;19988;-76
2023/03/31 22:57:19;;;;;;;;;;;6.80;99.90;;;;;;8260371;28;19921;-77
2023/03/31 23:01:20;;;;;;;;;;;6.80;99.90;;;;;;8240081;28;19914;-77
2023/03/31 23:05:23;;;;;;;;;;;6.70;99.90;;;;;;8251664;28;19936;-77
2023/03/31 23:09:23;;;;;;;;;;;6.70;99.90;;;;;;8259927;28;20043;-77
2023/03/31 23:13:24;;;;;;;;;;;6.70;99.90;;;;;;8245086;28;20000;-77
2023/03/31 23:17:25;;;;;;;;;;;6.70;99.90;;;;;;8261482;28;19905;-77
2023/03/31 23:21:26;;;;;;;;;;;6.70;99.90;;;;;;8255995;28;19917;-77
2023/03/31 23:25:27;;;;;;;;;;;6.70;99.90;;;;;;8251234;28;19945;-77
2023/03/31 23:29:29;;;;;;;;;;;6.70;99.90;;;;;;8246313;28;19910;-77
2023/03/31 23:33:30;;;;;;;;;;;6.60;99.90;;;;;;8260386;28;19914;-78
2023/03/31 23:37:31;;;;;;;;;;;6.70;99.90;;;;;;8255955;28;19964;-77
2023/03/31 23:41:32;;;;;;;;;;;6.80;99.90;;;;;;8247276;28;19909;-77
2023/03/31 23:45:32;;;;;;;;;;;6.90;99.90;;;;;;8248703;28;20234;-76
2023/03/31 23:49:33;;;;;;;;;;;6.90;99.90;;;;;;8259529;28;19932;-77